Time;durP1;ratioP1;P1;durP2;ratioP2;P2;SDS_P1;SDS_P2;PMS_P1;PMS_P2;Temp;Humidity;BMP_temperature;BMP_pressure;BME280_temperature;BME280_humidity;BME280_pressure;Samples;Min_cycle;Max_cycle;Signal;HPM_P1;HPM_P2
2021/11/18 00:00:47;;;;;;;24.17;11.68;;;10.50;99.90;;;;;;6245701;22;20050;-81
2021/11/18 00:03:14;;;;;;;20.08;11.38;;;10.40;99.90;;;;;;6243879;23;20011;-81
2021/11/18 00:05:40;;;;;;;16.23;10.55;;;10.30;99.90;;;;;;6243890;23;20008;-81
2021/11/18 00:08:06;;;;;;;16.63;9.27;;;10.40;99.90;;;;;;6243819;23;20040;-81
2021/11/18 00:13:10;;;;;;;14.70;8.95;;;10.50;99.90;;;;;;6237201;22;20028;-77
2021/11/18 00:15:37;;;;;;;17.17;9.13;;;10.50;99.90;;;;;;6243936;23;20054;-77
2021/11/18 00:18:08;;;;;;;13.10;7.75;;;10.50;99.90;;;;;;6244913;22;20000;-76
2021/11/18 00:20:39;;;;;;;10.25;7.32;;;10.60;99.90;;;;;;6243157;23;20040;-77
2021/11/18 00:23:05;;;;;;;10.90;7.38;;;10.60;99.90;;;;;;6245228;22;20082;-77
2021/11/18 00:25:31;;;;;;;12.70;7.80;;;10.70;99.90;;;;;;6245469;23;20011;-77
2021/11/18 00:27:58;;;;;;;17.02;8.32;;;10.70;99.90;;;;;;6243412;23;20146;-76
2021/11/18 00:30:24;;;;;;;13.13;8.02;;;10.70;99.90;;;;;;6243323;23;20007;-76
2021/11/18 00:32:50;;;;;;;15.05;7.68;;;10.70;99.90;;;;;;6245380;22;20494;-76
2021/11/18 00:35:20;;;;;;;11.18;7.90;;;10.80;99.90;;;;;;6245466;22;20001;-76
2021/11/18 00:37:47;;;;;;;11.02;7.78;;;10.80;99.90;;;;;;6243747;23;20000;-77
2021/11/18 00:40:15;;;;;;;13.00;8.27;;;10.70;99.90;;;;;;6243634;23;20011;-76
2021/11/18 00:42:41;;;;;;;11.27;7.47;;;10.70;99.90;;;;;;6244256;23;20000;-76
2021/11/18 00:45:09;;;;;;;13.32;7.53;;;10.70;99.90;;;;;;6245968;23;20447;-76
2021/11/18 00:47:35;;;;;;;11.07;7.20;;;10.70;99.90;;;;;;6247192;22;20000;-77
2021/11/18 00:50:01;;;;;;;12.10;7.55;;;10.70;99.90;;;;;;6247291;22;20000;-76
2021/11/18 00:52:26;;;;;;;9.85;6.80;;;10.70;99.90;;;;;;6245575;23;20004;-76
2021/11/18 00:54:52;;;;;;;11.25;6.93;;;10.70;99.90;;;;;;6247002;23;20067;-77
2021/11/18 00:57:18;;;;;;;9.27;6.93;;;10.70;99.90;;;;;;6247197;23;20371;-77
2021/11/18 00:59:46;;;;;;;11.40;6.78;;;10.70;99.90;;;;;;6247377;22;20861;-76
2021/11/18 01:02:13;;;;;;;14.65;7.93;;;10.70;99.90;;;;;;6247309;22;20051;-76
2021/11/18 01:04:39;;;;;;;10.18;6.45;;;10.70;99.90;;;;;;6247199;22;20008;-76
2021/11/18 01:07:06;;;;;;;11.15;7.65;;;10.70;99.90;;;;;;6245564;23;20011;-76
2021/11/18 01:09:31;;;;;;;11.48;6.97;;;10.70;99.90;;;;;;6245106;23;20016;-77
2021/11/18 01:11:57;;;;;;;10.52;7.43;;;10.70;99.90;;;;;;6246848;23;20012;-77
2021/11/18 01:14:24;;;;;;;11.40;7.30;;;10.70;99.90;;;;;;6246988;23;20463;-76
2021/11/18 01:16:51;;;;;;;10.85;7.05;;;10.80;99.90;;;;;;6245519;23;20000;-76
2021/11/18 01:19:17;;;;;;;10.90;7.63;;;10.80;99.90;;;;;;6246909;22;20000;-76
2021/11/18 01:21:47;;;;;;;11.60;7.45;;;10.90;99.90;;;;;;6245403;23;20008;-76
2021/11/18 01:24:13;;;;;;;10.23;7.50;;;10.90;99.90;;;;;;6245264;23;20011;-76
2021/11/18 01:26:38;;;;;;;16.67;8.43;;;10.90;99.90;;;;;;6245392;23;20305;-76
2021/11/18 01:29:04;;;;;;;14.93;7.97;;;10.90;99.90;;;;;;6244935;23;20004;-76
2021/11/18 01:31:31;;;;;;;10.82;7.05;;;10.90;99.90;;;;;;6244673;23;20380;-76
2021/11/18 01:33:58;;;;;;;16.85;7.35;;;11.00;99.90;;;;;;6247006;22;20001;-77
2021/11/18 01:36:24;;;;;;;15.68;8.20;;;11.00;99.90;;;;;;6245144;23;20087;-76
2021/11/18 01:38:50;;;;;;;13.43;7.53;;;11.00;99.90;;;;;;6246877;23;20032;-76
2021/11/18 01:41:23;;;;;;;14.57;7.38;;;11.00;99.90;;;;;;6246614;23;20007;-77
2021/11/18 01:43:54;;;;;;;10.73;7.53;;;11.00;99.90;;;;;;6246690;22;20011;-77
2021/11/18 01:46:34;;;;;;;14.95;7.90;;;11.10;99.90;;;;;;6246738;22;20000;-77
2021/11/18 01:49:01;;;;;;;14.10;8.10;;;11.10;99.90;;;;;;6244823;23;20004;-77
2021/11/18 01:51:31;;;;;;;15.80;7.93;;;11.10;99.90;;;;;;6246742;22;20024;-76
2021/11/18 01:53:58;;;;;;;14.02;7.50;;;11.20;99.90;;;;;;6246524;22;19996;-76
2021/11/18 01:56:27;;;;;;;10.23;6.60;;;11.10;99.90;;;;;;6244748;23;20004;-77
2021/11/18 01:59:29;;;;;;;13.75;7.90;;;11.20;99.90;;;;;;6246451;22;20028;-76
2021/11/18 02:01:56;;;;;;;11.63;7.38;;;11.20;99.90;;;;;;6246474;22;20004;-76
2021/11/18 02:04:26;;;;;;;14.18;7.63;;;11.10;99.90;;;;;;6246728;22;20000;-76
2021/11/18 02:06:55;;;;;;;15.73;7.88;;;11.20;99.90;;;;;;6244867;23;20004;-77
2021/11/18 02:09:25;;;;;;;12.70;7.70;;;11.20;99.90;;;;;;6246263;22;20011;-77
2021/11/18 02:11:55;;;;;;;10.70;7.47;;;11.20;99.90;;;;;;6244561;23;20040;-76
2021/11/18 02:14:25;;;;;;;15.77;7.38;;;11.20;99.90;;;;;;6244792;23;20000;-76
2021/11/18 02:16:53;;;;;;;14.85;6.65;;;11.20;99.90;;;;;;6246500;22;19996;-76
2021/11/18 02:19:19;;;;;;;9.73;7.20;;;11.20;99.90;;;;;;6246302;22;20075;-76
2021/11/18 02:21:51;;;;;;;12.27;7.10;;;11.20;99.90;;;;;;6244691;23;20105;-76
2021/11/18 02:24:22;;;;;;;14.13;7.05;;;11.20;99.90;;;;;;6245073;23;20412;-76
2021/11/18 02:26:48;;;;;;;13.45;7.22;;;11.10;99.90;;;;;;6244918;23;20054;-77
2021/11/18 02:29:14;;;;;;;12.70;7.00;;;11.10;99.90;;;;;;6246036;23;20371;-76
2021/11/18 02:31:57;;;;;;;15.85;7.45;;;11.10;99.90;;;;;;6244455;23;20008;-76
2021/11/18 02:34:41;;;;;;;10.40;7.28;;;11.10;99.90;;;;;;6246359;22;20000;-76
2021/11/18 02:37:07;;;;;;;13.20;7.22;;;11.10;99.90;;;;;;6246200;22;20423;-76
2021/11/18 02:39:34;;;;;;;11.30;7.60;;;11.10;99.90;;;;;;6246003;23;20003;-76
2021/11/18 02:42:00;;;;;;;10.57;7.65;;;11.10;99.90;;;;;;6246060;23;20007;-77
2021/11/18 02:44:29;;;;;;;11.85;7.22;;;11.10;99.90;;;;;;6244424;23;20050;-77
2021/11/18 02:46:56;;;;;;;12.38;7.45;;;11.00;99.90;;;;;;6244408;23;20004;-77
2021/11/18 02:49:21;;;;;;;9.05;6.65;;;11.00;99.90;;;;;;6246001;22;20027;-76
2021/11/18 02:51:47;;;;;;;11.23;7.70;;;11.00;99.90;;;;;;6246221;23;20000;-77
2021/11/18 02:54:13;;;;;;;11.75;7.30;;;11.00;99.90;;;;;;6245598;23;20001;-76
2021/11/18 02:56:39;;;;;;;11.32;7.38;;;11.00;99.90;;;;;;6243610;23;20031;-76
2021/11/18 02:59:04;;;;;;;11.50;6.95;;;11.00;99.90;;;;;;6245772;22;20000;-76
2021/11/18 03:01:34;;;;;;;9.25;6.35;;;10.90;99.90;;;;;;6244131;23;20012;-76
2021/11/18 03:04:00;;;;;;;12.73;7.68;;;10.90;99.90;;;;;;6245702;22;20433;-77
2021/11/18 03:06:27;;;;;;;12.40;7.63;;;10.90;99.90;;;;;;6245841;22;20075;-77
2021/11/18 03:08:54;;;;;;;10.95;6.90;;;10.90;99.90;;;;;;6244148;23;20340;-76
2021/11/18 03:11:22;;;;;;;11.55;7.03;;;10.80;99.90;;;;;;6245732;22;20001;-77
2021/11/18 03:13:48;;;;;;;10.02;7.22;;;10.90;99.90;;;;;;6245888;23;20701;-76
2021/11/18 03:16:15;;;;;;;14.27;7.75;;;10.80;99.90;;;;;;6245938;22;20018;-76
2021/11/18 03:18:41;;;;;;;11.48;7.57;;;10.80;99.90;;;;;;6245769;22;19992;-76
2021/11/18 03:21:11;;;;;;;12.85;7.18;;;10.80;99.90;;;;;;6245990;22;20004;-76
2021/11/18 03:23:37;;;;;;;11.20;7.25;;;10.70;99.90;;;;;;6245595;22;20443;-76
2021/11/18 03:26:04;;;;;;;13.20;6.82;;;10.80;99.90;;;;;;6244277;23;20004;-77
2021/11/18 03:28:34;;;;;;;14.88;7.55;;;10.70;99.90;;;;;;6244359;23;20004;-76
2021/11/18 03:31:03;;;;;;;12.88;7.45;;;10.70;99.90;;;;;;6244204;23;20320;-77
2021/11/18 03:33:36;;;;;;;10.63;7.15;;;10.70;99.90;;;;;;6246399;22;19996;-76
2021/11/18 03:36:02;;;;;;;11.60;6.80;;;10.70;99.90;;;;;;6244526;23;20023;-76
2021/11/18 03:38:30;;;;;;;10.82;7.57;;;10.70;99.90;;;;;;6245679;22;19997;-76
2021/11/18 03:41:03;;;;;;;11.88;7.38;;;10.70;99.90;;;;;;6245823;22;20000;-76
2021/11/18 03:43:36;;;;;;;10.90;6.85;;;10.70;99.90;;;;;;6244304;23;20062;-76
2021/11/18 03:46:03;;;;;;;11.40;7.63;;;10.70;99.90;;;;;;6244101;23;20004;-76
2021/11/18 03:48:30;;;;;;;11.68;6.93;;;10.70;99.90;;;;;;6245677;22;20043;-77
2021/11/18 03:50:57;;;;;;;8.00;6.45;;;10.60;99.90;;;;;;6245464;22;19996;-76
2021/11/18 03:53:23;;;;;;;11.15;7.63;;;10.60;99.90;;;;;;6245757;22;20003;-76
2021/11/18 03:55:49;;;;;;;9.07;7.10;;;10.60;99.90;;;;;;6245693;22;20000;-76
2021/11/18 03:58:15;;;;;;;10.63;6.95;;;10.60;99.90;;;;;;6243820;23;20010;-76
2021/11/18 04:00:41;;;;;;;10.23;7.43;;;10.60;99.90;;;;;;6243489;23;20062;-76
2021/11/18 04:03:09;;;;;;;13.75;7.50;;;10.60;99.90;;;;;;6243986;23;20366;-76
2021/11/18 04:05:35;;;;;;;10.32;6.97;;;10.60;99.90;;;;;;6245571;22;20007;-77
2021/11/18 04:08:01;;;;;;;12.75;7.18;;;10.60;99.90;;;;;;6245346;22;20075;-76
2021/11/18 04:10:29;;;;;;;10.70;7.22;;;10.60;99.90;;;;;;6243730;23;20086;-76
2021/11/18 04:12:56;;;;;;;12.23;6.65;;;10.60;99.90;;;;;;6243979;23;20313;-77
2021/11/18 04:15:24;;;;;;;13.80;7.55;;;10.60;99.90;;;;;;6244203;23;20000;-76
2021/11/18 04:17:49;;;;;;;11.52;7.78;;;10.60;99.90;;;;;;6246079;22;20000;-76
2021/11/18 04:20:16;;;;;;;13.75;7.28;;;10.50;99.90;;;;;;6247374;23;20011;-77
2021/11/18 04:22:44;;;;;;;9.90;6.45;;;10.50;99.90;;;;;;6247773;22;19996;-77
2021/11/18 04:25:12;;;;;;;14.45;7.40;;;10.50;99.90;;;;;;6245982;23;20083;-77
2021/11/18 04:27:41;;;;;;;10.73;6.53;;;10.50;99.90;;;;;;6247359;22;20004;-77
2021/11/18 04:30:10;;;;;;;14.70;7.32;;;10.50;99.90;;;;;;6247700;22;19996;-76
2021/11/18 04:32:36;;;;;;;13.82;7.75;;;10.50;99.90;;;;;;6245583;23;20008;-76
2021/11/18 04:35:02;;;;;;;10.30;7.05;;;10.50;99.90;;;;;;6245934;23;20071;-76
2021/11/18 04:37:28;;;;;;;11.50;7.22;;;10.50;99.90;;;;;;6247435;22;20031;-76
2021/11/18 04:39:54;;;;;;;11.00;6.95;;;10.50;99.90;;;;;;6247179;22;20003;-77
2021/11/18 04:42:20;;;;;;;12.07;7.38;;;10.50;99.90;;;;;;6245594;23;20083;-77
2021/11/18 04:44:47;;;;;;;10.48;7.30;;;10.40;99.90;;;;;;6247257;22;20386;-77
2021/11/18 04:47:13;;;;;;;13.52;7.80;;;10.40;99.90;;;;;;6247368;22;20004;-76
2021/11/18 04:49:41;;;;;;;12.35;8.02;;;10.40;99.90;;;;;;6245384;23;20446;-77
2021/11/18 04:52:08;;;;;;;12.55;6.55;;;10.40;99.90;;;;;;6245405;23;20317;-77
2021/11/18 04:54:35;;;;;;;15.55;8.88;;;10.40;99.90;;;;;;6245114;23;20019;-77
2021/11/18 04:57:02;;;;;;;11.05;7.80;;;10.40;99.90;;;;;;6246885;22;19996;-76
2021/11/18 04:59:28;;;;;;;10.13;7.30;;;10.50;99.90;;;;;;6244893;23;20050;-77
2021/11/18 05:01:54;;;;;;;11.43;6.68;;;10.40;99.90;;;;;;6245257;23;20008;-76
2021/11/18 05:04:20;;;;;;;12.02;7.78;;;10.40;99.90;;;;;;6247235;22;20439;-76
2021/11/18 05:06:46;;;;;;;10.77;7.78;;;10.40;99.90;;;;;;6247109;23;20004;-76
2021/11/18 05:09:13;;;;;;;11.02;8.10;;;10.40;99.90;;;;;;6245197;23;20011;-77
2021/11/18 05:11:40;;;;;;;13.40;8.68;;;10.40;99.90;;;;;;6246595;22;20023;-76
2021/11/18 05:14:07;;;;;;;14.00;7.85;;;10.40;99.90;;;;;;6245279;23;20023;-76
2021/11/18 05:16:33;;;;;;;11.98;7.38;;;10.40;99.90;;;;;;6246903;22;19992;-76
2021/11/18 05:18:59;;;;;;;13.20;7.85;;;10.40;99.90;;;;;;6245268;23;20069;-76
2021/11/18 05:21:28;;;;;;;9.85;7.10;;;10.30;99.90;;;;;;6247133;22;20004;-77
2021/11/18 05:23:59;;;;;;;11.55;7.93;;;10.30;99.90;;;;;;6245312;23;20012;-77
2021/11/18 05:26:26;;;;;;;15.75;8.88;;;10.30;99.90;;;;;;6246867;22;20011;-77
2021/11/18 05:28:52;;;;;;;11.35;7.57;;;10.30;99.90;;;;;;6246781;22;20058;-76
2021/11/18 05:31:21;;;;;;;17.85;8.90;;;10.30;99.90;;;;;;6246935;22;20000;-77
2021/11/18 05:33:47;;;;;;;11.40;7.97;;;10.30;99.90;;;;;;6246900;22;20054;-77
2021/11/18 05:36:14;;;;;;;15.15;7.65;;;10.30;99.90;;;;;;6245312;23;20011;-76
2021/11/18 05:38:40;;;;;;;9.43;7.68;;;10.30;99.90;;;;;;6246753;22;19996;-77
2021/11/18 05:41:06;;;;;;;13.13;8.82;;;10.30;99.90;;;;;;6246995;22;20007;-76
2021/11/18 05:43:35;;;;;;;12.30;8.02;;;10.30;99.90;;;;;;6244960;23;20004;-77
2021/11/18 05:46:01;;;;;;;14.73;8.35;;;10.30;99.90;;;;;;6246748;22;20001;-76
2021/11/18 05:48:27;;;;;;;15.43;8.15;;;10.30;99.90;;;;;;6246871;22;20031;-76
2021/11/18 05:50:55;;;;;;;12.18;8.02;;;10.30;99.90;;;;;;6244539;23;20039;-76
2021/11/18 05:53:29;;;;;;;12.88;7.75;;;10.30;99.90;;;;;;6245201;23;20061;-76
2021/11/18 05:55:56;;;;;;;16.60;8.38;;;10.30;99.90;;;;;;6246538;22;20071;-76
2021/11/18 05:58:22;;;;;;;15.05;8.27;;;10.30;99.90;;;;;;6246140;22;19996;-77
2021/11/18 06:00:48;;;;;;;11.40;7.80;;;10.20;99.90;;;;;;6246225;22;20007;-76
2021/11/18 06:03:14;;;;;;;14.30;7.97;;;10.20;99.90;;;;;;6246244;23;20079;-76
2021/11/18 06:05:40;;;;;;;14.18;8.07;;;10.20;99.90;;;;;;6246206;22;20027;-76
2021/11/18 06:08:06;;;;;;;14.63;8.27;;;10.20;99.90;;;;;;6246134;22;20027;-77
2021/11/18 06:10:33;;;;;;;16.38;8.27;;;10.20;99.90;;;;;;6245871;22;20055;-77
2021/11/18 06:13:00;;;;;;;12.35;7.57;;;10.20;99.90;;;;;;6246056;22;20016;-76
2021/11/18 06:15:26;;;;;;;11.13;7.55;;;10.20;99.90;;;;;;6245971;22;20008;-77
2021/11/18 06:17:52;;;;;;;13.13;8.25;;;10.20;99.90;;;;;;6245131;22;20004;-76
2021/11/18 06:20:19;;;;;;;14.98;8.73;;;10.20;99.90;;;;;;6243516;23;20404;-76
2021/11/18 06:22:46;;;;;;;9.88;7.95;;;10.20;99.90;;;;;;6245428;22;20311;-76
2021/11/18 06:25:15;;;;;;;15.85;8.50;;;10.10;99.90;;;;;;6243925;23;20007;-77
2021/11/18 06:27:43;;;;;;;13.18;7.47;;;10.10;99.90;;;;;;6245980;22;20008;-77
2021/11/18 06:30:14;;;;;;;12.68;7.95;;;10.10;99.90;;;;;;6246057;22;20059;-77
2021/11/18 06:32:40;;;;;;;12.43;7.65;;;10.10;99.90;;;;;;6246479;22;20000;-76
2021/11/18 06:35:07;;;;;;;12.45;8.43;;;10.10;99.90;;;;;;6246035;22;20003;-76
2021/11/18 06:37:32;;;;;;;13.68;8.07;;;10.10;99.90;;;;;;6244079;23;20011;-77
2021/11/18 06:39:58;;;;;;;13.93;7.88;;;10.10;99.90;;;;;;6244177;23;20008;-77
2021/11/18 06:42:24;;;;;;;18.88;8.00;;;10.10;99.90;;;;;;6244312;23;20083;-81
2021/11/18 06:44:49;;;;;;;13.43;8.25;;;10.10;99.90;;;;;;6247019;22;20000;-76
2021/11/18 06:47:17;;;;;;;12.38;7.68;;;10.10;99.90;;;;;;6244898;23;20008;-76
2021/11/18 06:49:43;;;;;;;16.98;7.57;;;10.10;99.90;;;;;;6246206;22;20007;-76
2021/11/18 06:52:11;;;;;;;11.93;8.10;;;10.20;99.90;;;;;;6244848;23;20506;-77
2021/11/18 06:54:37;;;;;;;17.08;9.98;;;10.20;99.90;;;;;;6246371;22;19996;-76
2021/11/18 06:57:04;;;;;;;14.75;9.15;;;10.20;99.90;;;;;;6246129;23;20000;-77
2021/11/18 06:59:30;;;;;;;17.42;10.45;;;10.10;99.90;;;;;;6244148;23;20003;-76
2021/11/18 07:01:56;;;;;;;20.48;10.52;;;10.10;99.90;;;;;;6244479;23;20328;-76
2021/11/18 07:04:23;;;;;;;20.42;11.20;;;10.10;99.90;;;;;;6246463;22;20024;-77
2021/11/18 07:06:50;;;;;;;18.85;10.77;;;10.20;99.90;;;;;;6245991;22;20032;-77
2021/11/18 07:09:16;;;;;;;16.70;10.73;;;10.20;99.90;;;;;;6245841;22;20000;-76
2021/11/18 07:11:42;;;;;;;17.35;11.20;;;10.10;99.90;;;;;;6245608;23;20012;-77
2021/11/18 07:14:07;;;;;;;17.77;10.50;;;10.10;99.90;;;;;;6246078;22;20036;-76
2021/11/18 07:16:33;;;;;;;16.77;9.18;;;10.20;99.90;;;;;;6246007;22;20052;-76
2021/11/18 07:19:04;;;;;;;14.63;9.27;;;10.20;99.90;;;;;;6244257;23;20027;-77
2021/11/18 07:21:32;;;;;;;17.13;10.65;;;10.20;99.90;;;;;;6245535;22;20007;-76
2021/11/18 07:24:02;;;;;;;26.50;12.18;;;10.30;99.90;;;;;;6244178;23;20336;-76
2021/11/18 07:26:38;;;;;;;21.67;11.32;;;10.30;99.90;;;;;;6245485;22;20004;-77
2021/11/18 07:29:11;;;;;;;18.15;11.35;;;10.30;99.90;;;;;;6245570;22;19996;-76
2021/11/18 07:31:38;;;;;;;23.10;11.07;;;10.40;99.90;;;;;;6245857;22;20055;-77
2021/11/18 07:34:08;;;;;;;22.30;11.55;;;10.40;99.90;;;;;;6245320;22;20008;-77
2021/11/18 07:36:33;;;;;;;20.30;11.43;;;10.40;99.90;;;;;;6245556;22;20001;-76
2021/11/18 07:38:59;;;;;;;17.17;10.18;;;10.40;99.90;;;;;;6245854;22;20181;-76
2021/11/18 07:41:26;;;;;;;15.07;9.35;;;10.40;99.90;;;;;;6243428;23;20008;-76
2021/11/18 07:43:52;;;;;;;14.30;9.40;;;10.40;99.90;;;;;;6243612;23;20443;-76
2021/11/18 07:46:18;;;;;;;16.70;9.75;;;10.50;99.90;;;;;;6243721;23;20478;-77
2021/11/18 07:48:46;;;;;;;15.15;8.88;;;10.50;99.90;;;;;;6245038;22;20004;-76
2021/11/18 07:51:13;;;;;;;15.40;9.35;;;10.60;99.90;;;;;;6243332;23;20008;-76
2021/11/18 07:53:40;;;;;;;16.35;9.88;;;10.60;99.90;;;;;;6246358;22;20024;-77
2021/11/18 07:56:07;;;;;;;17.05;9.55;;;10.60;99.90;;;;;;6247380;22;20331;-77
2021/11/18 07:58:33;;;;;;;16.85;9.38;;;10.70;99.90;;;;;;6245800;23;20000;-77
2021/11/18 08:00:59;;;;;;;17.52;11.00;;;10.70;99.90;;;;;;6247766;22;20008;-77
2021/11/18 08:03:28;;;;;;;18.85;10.07;;;10.70;99.90;;;;;;6247758;22;20000;-77
2021/11/18 08:05:54;;;;;;;16.42;9.05;;;10.80;99.90;;;;;;6246150;23;20058;-76
2021/11/18 08:08:20;;;;;;;21.75;9.93;;;10.80;99.90;;;;;;6246048;23;20012;-77
2021/11/18 08:10:46;;;;;;;17.35;9.15;;;10.90;99.90;;;;;;6247630;22;20435;-77
2021/11/18 08:13:11;;;;;;;17.77;9.55;;;10.90;99.90;;;;;;6245611;23;20011;-76
2021/11/18 08:15:38;;;;;;;18.95;9.25;;;10.90;99.90;;;;;;6246678;23;20031;-77
2021/11/18 08:18:04;;;;;;;17.00;9.23;;;11.00;99.90;;;;;;6246379;22;20424;-77
2021/11/18 08:20:31;;;;;;;18.98;9.07;;;11.00;99.90;;;;;;6244630;23;20011;-77
2021/11/18 08:22:57;;;;;;;20.08;9.77;;;11.00;99.90;;;;;;6246030;22;19993;-77
2021/11/18 08:25:26;;;;;;;20.63;10.15;;;11.00;99.90;;;;;;6246448;22;20058;-77
2021/11/18 08:27:51;;;;;;;19.75;12.00;;;11.10;99.90;;;;;;6247368;22;19997;-81
2021/11/18 08:30:26;;;;;;;22.40;12.98;;;11.20;99.90;;;;;;6247270;22;20000;-81
2021/11/18 08:32:54;;;;;;;21.90;12.18;;;11.10;99.90;;;;;;6247265;22;20007;-81
2021/11/18 08:35:26;;;;;;;24.60;12.38;;;11.20;99.90;;;;;;6247269;22;20028;-81
2021/11/18 08:37:52;;;;;;;27.05;13.95;;;11.20;99.90;;;;;;6247134;22;20084;-81
2021/11/18 08:40:18;;;;;;;26.23;13.98;;;11.30;99.90;;;;;;6247150;22;19996;-81
2021/11/18 08:42:46;;;;;;;28.73;13.13;;;11.30;99.90;;;;;;6245253;23;20087;-81
2021/11/18 08:45:12;;;;;;;18.17;11.52;;;11.30;99.90;;;;;;6246919;22;20039;-81
2021/11/18 08:47:40;;;;;;;19.65;12.57;;;11.40;99.90;;;;;;6247173;22;20011;-81
2021/11/18 08:50:10;;;;;;;20.30;12.98;;;11.40;99.90;;;;;;6247136;23;20007;-81
2021/11/18 08:52:37;;;;;;;23.70;12.00;;;11.50;99.90;;;;;;6245395;23;20065;-81
2021/11/18 08:55:08;;;;;;;24.55;12.25;;;11.50;99.90;;;;;;6246938;22;19996;-81
2021/11/18 08:57:34;;;;;;;22.27;12.70;;;11.60;99.90;;;;;;6246712;22;20000;-81
2021/11/18 08:59:59;;;;;;;24.67;12.85;;;11.60;99.90;;;;;;6246998;23;20305;-81
2021/11/18 09:02:28;;;;;;;25.08;12.77;;;11.70;99.90;;;;;;6245366;23;20054;-81
2021/11/18 09:04:54;;;;;;;27.20;12.27;;;11.70;99.90;;;;;;6245268;23;20450;-81
2021/11/18 09:07:21;;;;;;;23.85;12.80;;;11.80;99.90;;;;;;6246803;22;20050;-80
2021/11/18 09:09:47;;;;;;;27.50;13.40;;;11.90;99.90;;;;;;6247080;22;20006;-81
2021/11/18 09:12:13;;;;;;;30.77;14.93;;;11.90;99.90;;;;;;6245029;23;20099;-81
2021/11/18 09:14:40;;;;;;;33.15;14.70;;;12.00;99.90;;;;;;6246921;22;20058;-81
2021/11/18 09:17:09;;;;;;;32.33;16.42;;;12.00;99.90;;;;;;6244954;23;20004;-81
2021/11/18 09:19:36;;;;;;;29.83;15.85;;;12.10;99.90;;;;;;6246559;22;20004;-81
2021/11/18 09:22:06;;;;;;;34.90;16.45;;;12.10;99.90;;;;;;6245230;23;20004;-81
2021/11/18 09:24:55;;;;;;;33.90;15.48;;;12.20;99.90;;;;;;6246654;22;20008;-81
2021/11/18 09:27:33;;;;;;;31.38;16.08;;;12.20;99.90;;;;;;6270451;22;20406;-81
2021/11/18 09:30:02;;;;;;;33.92;16.15;;;12.30;99.90;;;;;;6246670;22;20011;-81
2021/11/18 09:32:29;;;;;;;37.22;16.95;;;12.30;99.90;;;;;;6246853;22;20000;-81
2021/11/18 09:35:00;;;;;;;36.03;16.58;;;12.30;99.90;;;;;;6246796;22;20047;-81
2021/11/18 09:37:26;;;;;;;32.97;16.65;;;12.30;99.90;;;;;;6246810;22;20000;-80
2021/11/18 09:39:51;;;;;;;40.38;18.02;;;12.30;99.90;;;;;;6246856;22;20054;-80
2021/11/18 09:42:22;;;;;;;38.88;17.33;;;12.40;99.90;;;;;;6245166;23;20004;-81
2021/11/18 09:45:05;;;;;;;36.35;17.55;;;12.40;99.90;;;;;;6246781;22;20428;-81
2021/11/18 09:47:45;;;;;;;;;;;12.40;99.90;;;;;;6245565;23;20065;-80
2021/11/18 09:50:14;;;;;;;33.30;14.73;;;12.50;99.90;;;;;;6246693;23;19900;-81
2021/11/18 09:52:52;;;;;;;33.42;16.08;;;12.50;99.90;;;;;;6244857;23;20011;-80
2021/11/18 09:55:21;;;;;;;35.97;17.00;;;12.50;99.90;;;;;;6246555;23;20115;-81
2021/11/18 09:58:20;;;;;;;31.05;16.83;;;12.50;99.90;;;;;;6244760;23;20328;-81
2021/11/18 10:01:24;;;;;;;36.00;17.30;;;12.60;99.90;;;;;;6246624;23;19996;-80
2021/11/18 10:04:04;;;;;;;33.88;17.17;;;12.70;99.90;;;;;;6244927;23;20000;-80
2021/11/18 10:06:39;;;;;;;32.83;16.75;;;12.70;99.90;;;;;;6246513;22;20000;-80
2021/11/18 10:09:37;;;;;;;34.70;17.40;;;12.80;99.90;;;;;;6246553;22;19997;-81
2021/11/18 10:12:18;;;;;;;32.03;16.67;;;12.90;99.90;;;;;;6244487;23;20035;-80
2021/11/18 10:15:11;;;;;;;45.55;17.45;;;12.90;99.90;;;;;;6246057;23;20004;-80
2021/11/18 10:17:45;;;;;;;38.55;18.00;;;12.90;99.90;;;;;;6246280;22;19992;-80
2021/11/18 10:20:37;;;;;;;37.17;17.73;;;13.00;99.90;;;;;;6246288;22;20003;-80
2021/11/18 10:23:16;;;;;;;33.22;17.08;;;13.00;99.90;;;;;;6233094;23;20039;-80
2021/11/18 10:25:50;;;;;;;38.70;18.73;;;13.00;99.90;;;;;;6246242;22;20317;-81
2021/11/18 10:28:19;;;;;;;36.60;17.98;;;13.10;99.90;;;;;;6244437;23;20073;-81
2021/11/18 10:31:08;;;;;;;40.85;17.80;;;13.10;99.90;;;;;;6244348;23;20004;-81
2021/11/18 10:33:46;;;;;;;37.17;17.30;;;13.10;99.90;;;;;;6246206;22;20454;-80
2021/11/18 10:36:22;;;;;;;35.85;17.70;;;13.10;99.90;;;;;;6246060;22;20008;-80
2021/11/18 10:39:19;;;;;;;45.10;19.23;;;13.20;99.90;;;;;;6246025;22;19999;-81
2021/11/18 10:42:02;;;;;;;32.75;17.25;;;13.20;99.90;;;;;;6140661;22;20008;-80
2021/11/18 10:44:30;;;;;;;;;;;13.30;99.90;;;;;;6246639;22;20020;-81
2021/11/18 10:46:56;;;;;;;41.08;18.55;;;13.30;99.90;;;;;;6244245;23;19896;-80
2021/11/18 10:49:42;;;;;;;41.28;19.20;;;13.30;99.90;;;;;;6244287;23;20397;-81
2021/11/18 10:52:32;;;;;;;41.83;18.98;;;13.30;99.90;;;;;;6244115;23;20058;-80
2021/11/18 10:55:12;;;;;;;36.65;18.30;;;13.30;99.90;;;;;;6245311;23;19997;-77
2021/11/18 10:58:11;;;;;;;46.42;21.05;;;13.30;99.90;;;;;;6243775;23;20046;-77
2021/11/18 11:00:44;;;;;;;42.53;20.52;;;13.30;99.90;;;;;;6244957;23;20000;-76
2021/11/18 11:03:30;;;;;;;42.25;19.35;;;13.30;99.90;;;;;;6243196;23;20004;-76
2021/11/18 11:06:14;;;;;;;39.38;18.95;;;13.40;99.90;;;;;;6244165;23;20004;-77
2021/11/18 11:09:05;;;;;;;43.42;20.40;;;13.40;99.90;;;;;;6244166;23;20081;-78
2021/11/18 11:11:42;;;;;;;42.08;19.77;;;13.40;99.90;;;;;;6249346;22;20026;-77
2021/11/18 11:14:19;;;;;;;49.85;21.85;;;13.40;99.90;;;;;;6246379;22;20031;-77
2021/11/18 11:17:12;;;;;;;45.08;21.58;;;13.40;99.90;;;;;;6245888;22;20016;-77
2021/11/18 11:19:46;;;;;;;46.92;21.33;;;13.40;99.90;;;;;;6245110;22;19996;-76
2021/11/18 11:22:28;;;;;;;51.80;24.25;;;13.40;99.90;;;;;;6244230;23;20083;-77
2021/11/18 11:25:13;;;;;;;47.30;22.60;;;13.50;99.90;;;;;;6245900;23;20011;-76
2021/11/18 11:28:00;;;;;;;46.15;22.80;;;13.60;99.90;;;;;;6244060;23;20059;-77
2021/11/18 11:30:32;;;;;;;47.83;23.00;;;13.60;99.90;;;;;;6244109;23;20061;-77
2021/11/18 11:33:13;;;;;;;43.63;21.67;;;13.70;99.90;;;;;;6245919;23;20004;-76
2021/11/18 11:35:58;;;;;;;48.95;21.98;;;13.80;99.90;;;;;;6244171;23;20356;-77
2021/11/18 11:38:41;;;;;;;53.05;22.63;;;13.80;99.90;;;;;;6243990;23;20004;-76
2021/11/18 11:41:34;;;;;;;45.95;23.35;;;13.80;99.90;;;;;;6245819;23;20424;-77
2021/11/18 11:44:05;;;;;;;46.00;22.73;;;13.90;99.90;;;;;;6245793;22;20539;-77
2021/11/18 11:46:53;;;;;;;51.45;22.52;;;13.90;99.90;;;;;;6244160;23;20015;-77
2021/11/18 11:49:28;;;;;;;48.55;22.50;;;13.90;99.90;;;;;;6243810;23;20440;-76
2021/11/18 11:52:16;;;;;;;44.33;21.20;;;13.90;99.90;;;;;;6245501;22;20005;-76
2021/11/18 11:55:04;;;;;;;47.20;21.65;;;13.90;99.90;;;;;;6245968;22;19996;-77
2021/11/18 11:58:02;;;;;;;42.90;23.85;;;13.90;99.90;;;;;;6243860;23;19996;-77
2021/11/18 12:01:07;;;;;;;43.42;22.50;;;14.00;99.90;;;;;;6137738;22;20002;-77
2021/11/18 12:03:39;;;;;;;47.38;23.98;;;14.00;99.90;;;;;;6238462;23;20424;-77
2021/11/18 12:06:23;;;;;;;50.13;23.40;;;14.10;99.90;;;;;;6245504;23;20324;-76
2021/11/18 12:09:10;;;;;;;44.53;23.27;;;14.10;99.90;;;;;;6245379;23;20000;-76
2021/11/18 12:11:43;;;;;;;43.78;22.50;;;14.20;99.90;;;;;;6243565;23;20019;-77
2021/11/18 12:14:17;;;;;;;45.38;23.70;;;14.20;99.90;;;;;;6245653;23;20005;-76
2021/11/18 12:17:07;;;;;;;53.42;25.33;;;14.20;99.90;;;;;;6245430;23;20129;-77
2021/11/18 12:19:52;;;;;;;57.97;24.67;;;14.20;99.90;;;;;;6245660;22;20000;-76
2021/11/18 12:22:39;;;;;;;44.88;23.95;;;14.20;99.90;;;;;;6245620;23;20008;-77
2021/11/18 12:25:17;;;;;;;47.97;24.20;;;14.20;99.90;;;;;;6245627;22;20000;-76
2021/11/18 12:27:49;;;;;;;44.67;23.58;;;14.20;99.90;;;;;;6245298;22;20035;-76
2021/11/18 12:30:30;;;;;;;45.95;24.42;;;14.20;99.90;;;;;;6243858;23;20066;-77
2021/11/18 12:33:01;;;;;;;52.97;24.92;;;14.20;99.90;;;;;;6245225;22;20451;-77
2021/11/18 12:35:27;;;;;;;51.65;25.15;;;14.20;99.90;;;;;;6245331;23;20003;-76
2021/11/18 12:38:07;;;;;;;51.08;25.17;;;14.20;99.90;;;;;;6245153;23;20001;-77
2021/11/18 12:40:59;;;;;;;52.08;25.33;;;14.20;99.90;;;;;;6245712;23;20093;-77
2021/11/18 12:43:48;;;;;;;44.47;24.15;;;14.20;99.90;;;;;;6245668;23;20000;-77
2021/11/18 12:46:21;;;;;;;45.17;24.67;;;14.20;99.90;;;;;;6247232;23;20062;-77
2021/11/18 12:48:56;;;;;;;46.22;23.83;;;14.20;99.90;;;;;;6247333;22;20007;-76
2021/11/18 12:51:53;;;;;;;53.03;25.10;;;14.20;99.90;;;;;;6247225;22;20004;-76
2021/11/18 12:54:34;;;;;;;49.80;25.02;;;14.20;99.90;;;;;;6247223;22;20004;-76